createdAt,value
2017-06-30T00:00:49.288Z,95.9
2017-06-30T00:01:48.577Z,96.2
2017-06-30T00:02:47.799Z,95.9
2017-06-30T00:03:47.020Z,96.2
2017-06-30T00:04:46.495Z,96.3
2017-06-30T00:05:45.349Z,96.4
2017-06-30T00:06:44.592Z,96.2
2017-06-30T00:07:44.321Z,96
2017-06-30T00:08:43.548Z,96.1
2017-06-30T00:09:42.763Z,96.4
2017-06-30T00:10:42.230Z,96.1
2017-06-30T00:11:41.045Z,96.1
2017-06-30T00:13:39.842Z,96
2017-06-30T00:14:39.061Z,95.8
2017-06-30T00:15:38.298Z,95.9
2017-06-30T00:16:37.814Z,95.8
2017-06-30T00:17:36.801Z,95.6
2017-06-30T00:18:35.895Z,95.5
2017-06-30T00:19:35.617Z,95.6
2017-06-30T00:20:34.848Z,95.6
2017-06-30T00:21:34.071Z,95.5
2017-06-30T00:22:33.541Z,95.6
2017-06-30T00:23:32.650Z,95.4
2017-06-30T00:24:31.885Z,95.6
2017-06-30T00:25:30.983Z,95.3
2017-06-30T00:26:30.171Z,95.3
2017-06-30T00:27:29.405Z,95.2
2017-06-30T00:28:29.387Z,95.4
2017-06-30T00:29:27.976Z,95.7
2017-06-30T00:31:26.594Z,95.2
2017-06-30T00:32:26.219Z,95
2017-06-30T00:33:25.317Z,95
2017-06-30T00:34:24.796Z,95.2
2017-06-30T00:36:22.896Z,95.1
2017-06-30T00:37:22.624Z,95.1
2017-06-30T00:38:21.840Z,94.9
2017-06-30T00:39:21.061Z,94.9
2017-06-30T00:40:20.578Z,95.1
2017-06-30T00:41:19.287Z,94.8
2017-06-30T00:42:19.017Z,95.2
2017-06-30T00:43:18.226Z,95.4
2017-06-30T00:44:18.029Z,95
2017-06-30T00:45:16.742Z,95.2
2017-06-30T00:46:16.224Z,95.2
2017-06-30T00:47:14.936Z,94.8
2017-06-30T00:49:13.924Z,94.2
2017-06-30T00:50:13.180Z,94.2
2017-06-30T00:51:12.398Z,94.1
2017-06-30T00:52:11.877Z,93.9
2017-06-30T00:53:10.849Z,94
2017-06-30T00:54:10.064Z,94
2017-06-30T00:55:09.281Z,93.7
2017-06-30T00:56:08.493Z,93.8
2017-06-30T00:57:07.709Z,93.7
2017-06-30T00:59:06.558Z,93.4
2017-06-30T01:00:05.776Z,93
2017-06-30T01:01:04.878Z,93.2
2017-06-30T01:02:03.865Z,92.9
2017-06-30T01:03:03.616Z,92.6
2017-06-30T01:04:02.837Z,92.3
2017-06-30T01:05:02.332Z,92.6
2017-06-30T01:06:01.322Z,92.9
2017-06-30T01:07:00.544Z,93.2
2017-06-30T01:07:59.761Z,93
2017-06-30T01:08:58.979Z,92.4
2017-06-30T01:09:58.328Z,92.8
2017-06-30T01:10:57.792Z,92.5
2017-06-30T01:11:56.948Z,93
2017-06-30T01:12:56.157Z,93
2017-06-30T01:13:55.371Z,92.8
2017-06-30T01:14:54.581Z,92.6
2017-06-30T01:15:24.991Z,92.6
2017-06-30T01:15:55.526Z,93.1
2017-06-30T01:16:26.136Z,93.1
2017-06-30T01:16:56.610Z,92.9
2017-06-30T01:17:27.150Z,92.9
2017-06-30T01:18:52.037Z,92.8
2017-06-30T01:19:51.253Z,92.7
2017-06-30T01:20:50.477Z,92.7
2017-06-30T01:21:49.955Z,93
2017-06-30T01:22:48.679Z,93
2017-06-30T01:23:47.970Z,93.3
2017-06-30T01:24:47.693Z,93.2
2017-06-30T01:25:46.926Z,93.4
2017-06-30T01:26:46.146Z,93.5
2017-06-30T01:27:45.621Z,93.7
2017-06-30T01:28:44.331Z,93.7
2017-06-30T01:29:43.929Z,93.8
2017-06-30T01:30:43.226Z,94.1
2017-06-30T01:31:42.444Z,94.2
2017-06-30T01:32:41.659Z,94.1
2017-06-30T01:33:41.162Z,94.2
2017-06-30T01:34:40.257Z,93.9
2017-06-30T01:35:39.244Z,94.2
2017-06-30T01:36:38.853Z,94.4
2017-06-30T01:37:09.279Z,94.4
2017-06-30T01:37:39.913Z,94.1
2017-06-30T01:38:10.446Z,94.1
2017-06-30T01:38:41.653Z,94.2
2017-06-30T01:39:11.324Z,94.2
2017-06-30T01:40:35.588Z,94.1
2017-06-30T01:41:34.804Z,94.3
2017-06-30T01:42:34.533Z,94.4
2017-06-30T01:44:33.278Z,94.5
2017-06-30T01:45:31.982Z,94.3
2017-06-30T01:46:31.202Z,94.4
2017-06-30T01:47:30.424Z,94.3
2017-06-30T01:48:30.139Z,94.2
2017-06-30T01:49:29.352Z,94.3
2017-06-30T01:50:28.871Z,94.6
2017-06-30T01:51:27.469Z,94.6
2017-06-30T01:52:27.203Z,94.7
2017-06-30T01:53:26.414Z,94.8
2017-06-30T01:54:25.510Z,94.7
2017-06-30T01:55:24.920Z,94.7
2017-06-30T01:55:55.697Z,94.7
2017-06-30T01:56:25.719Z,94.9
2017-06-30T01:56:56.825Z,94.9
2017-06-30T01:58:22.714Z,94.7
2017-06-30T01:59:21.923Z,94.6
2017-06-30T02:01:20.776Z,94.7
2017-06-30T02:02:19.476Z,95
2017-06-30T02:03:18.699Z,94.5
2017-06-30T02:04:18.424Z,94.3
2017-06-30T02:05:17.525Z,94.5
2017-06-30T02:06:16.742Z,94.3
2017-06-30T02:07:16.094Z,94.2
2017-06-30T02:08:15.319Z,94
2017-06-30T02:09:14.530Z,94.2
2017-06-30T02:11:13.137Z,93.9
2017-06-30T02:12:12.435Z,94.1
2017-06-30T02:13:11.917Z,94
2017-06-30T02:14:10.646Z,94
2017-06-30T02:15:09.861Z,94.2
2017-06-30T02:16:09.588Z,94.1
2017-06-30T02:17:08.808Z,93.9
2017-06-30T02:18:08.039Z,93.7
2017-06-30T02:19:07.518Z,93.8
2017-06-30T02:20:06.628Z,93.7
2017-06-30T02:21:05.741Z,93.7
2017-06-30T02:22:05.019Z,93.8
2017-06-30T02:23:04.123Z,93.8
2017-06-30T02:24:03.356Z,93.7
2017-06-30T02:25:02.717Z,93.6
2017-06-30T02:26:02.292Z,93.7
2017-06-30T02:27:01.515Z,93.8
2017-06-30T02:28:00.735Z,93.8
2017-06-30T02:28:59.839Z,93.6
2017-06-30T02:29:59.054Z,93.7
2017-06-30T02:30:58.560Z,93.5
2017-06-30T02:31:57.787Z,93.4
2017-06-30T02:32:57.005Z,93.2
2017-06-30T02:33:56.216Z,93.2
2017-06-30T02:34:55.431Z,93.5
2017-06-30T02:35:54.675Z,93.2
2017-06-30T02:36:54.153Z,93
2017-06-30T02:37:53.444Z,92.8
2017-06-30T02:38:52.702Z,92.9
2017-06-30T02:39:51.928Z,92.8
2017-06-30T02:40:51.141Z,93
2017-06-30T02:41:50.364Z,92.9
2017-06-30T02:42:49.880Z,93.2
2017-06-30T02:43:49.100Z,93
2017-06-30T02:44:48.333Z,92.8
2017-06-30T02:45:47.562Z,93.1
2017-06-30T02:46:46.683Z,93.5
2017-06-30T02:47:45.907Z,93.8
2017-06-30T02:48:45.437Z,93.2
2017-06-30T02:49:44.661Z,92.8
2017-06-30T02:50:43.720Z,93.1
2017-06-30T02:51:42.921Z,93.2
2017-06-30T02:52:42.123Z,93.2
2017-06-30T02:53:41.332Z,93.2
2017-06-30T02:54:41.298Z,93.3
2017-06-30T02:55:40.071Z,93.5
2017-06-30T02:56:39.275Z,93.4
2017-06-30T02:57:38.472Z,93.4
2017-06-30T02:58:37.694Z,93.4
2017-06-30T02:59:36.905Z,93.5
2017-06-30T03:00:36.872Z,93.7
2017-06-30T03:01:35.462Z,93.6
2017-06-30T03:02:35.169Z,93.5
2017-06-30T03:03:34.255Z,93.6
2017-06-30T03:04:33.650Z,93.7
2017-06-30T03:05:32.857Z,93.2
2017-06-30T03:06:32.323Z,93.4
2017-06-30T03:07:31.532Z,93.3
2017-06-30T03:08:30.614Z,93.2
2017-06-30T03:09:29.972Z,93
2017-06-30T03:10:29.174Z,93.2
2017-06-30T03:11:28.389Z,93.2
2017-06-30T03:12:27.860Z,93.4
2017-06-30T03:13:26.822Z,93.5
2017-06-30T03:14:26.031Z,93.2
2017-06-30T03:15:25.617Z,93.4
2017-06-30T03:16:24.832Z,93.6
2017-06-30T03:17:24.022Z,93.3
2017-06-30T03:18:23.355Z,93.2
2017-06-30T03:19:22.559Z,93.2
2017-06-30T03:20:21.817Z,93.2
2017-06-30T03:21:21.026Z,93.2
2017-06-30T03:23:19.615Z,93.1
2017-06-30T03:24:19.220Z,93.1
2017-06-30T03:25:17.932Z,92.9
2017-06-30T03:26:17.138Z,93
2017-06-30T03:27:16.415Z,93
2017-06-30T03:28:16.127Z,93.1
2017-06-30T03:29:15.321Z,93
2017-06-30T03:30:14.745Z,92.7
2017-06-30T03:31:13.448Z,92.6
2017-06-30T03:32:13.161Z,92.6
2017-06-30T03:34:11.619Z,92.6
2017-06-30T03:35:10.827Z,92.7
2017-06-30T03:36:10.274Z,93
2017-06-30T03:37:09.488Z,92.8
2017-06-30T03:38:08.577Z,92.7
2017-06-30T03:39:07.950Z,92.8
2017-06-30T03:40:07.163Z,92.9
2017-06-30T03:41:06.289Z,92.6
2017-06-30T03:42:05.749Z,92.7
2017-06-30T03:43:04.962Z,92.6
2017-06-30T03:44:04.055Z,92.7
2017-06-30T03:45:03.252Z,92.8
2017-06-30T03:46:02.872Z,92.7
2017-06-30T03:47:02.008Z,92.3
2017-06-30T03:48:01.476Z,92.5
2017-06-30T03:49:00.577Z,92.3
2017-06-30T03:49:59.850Z,92.5
2017-06-30T03:50:59.055Z,92.7
2017-06-30T03:51:58.348Z,93.2
2017-06-30T03:52:57.480Z,92.6
2017-06-30T03:53:56.985Z,92.5
2017-06-30T03:54:26.999Z,92.5
2017-06-30T03:54:57.520Z,92.3
2017-06-30T03:55:28.089Z,92.3
2017-06-30T03:56:54.872Z,92.3
2017-06-30T03:57:54.087Z,92.7
2017-06-30T03:58:53.181Z,92.5
2017-06-30T03:59:52.678Z,92.3
2017-06-30T04:01:50.769Z,92.5
2017-06-30T04:02:50.489Z,92.3
2017-06-30T04:03:49.698Z,91.9
2017-06-30T04:04:48.908Z,91.9
2017-06-30T04:05:48.473Z,92.2
2017-06-30T04:06:47.175Z,92.2
2017-06-30T04:07:46.390Z,92.6
2017-06-30T04:08:46.134Z,92.8
2017-06-30T04:09:45.335Z,92.7
2017-06-30T04:10:44.559Z,93.1
2017-06-30T04:11:44.031Z,93
2017-06-30T04:12:42.729Z,93.2
2017-06-30T04:13:42.443Z,92.8
2017-06-30T04:14:41.706Z,93
2017-06-30T04:15:12.168Z,93
2017-06-30T04:15:42.710Z,92.9
2017-06-30T04:16:39.778Z,93
2017-06-30T04:17:39.318Z,92.9
2017-06-30T04:18:38.531Z,93.2
2017-06-30T04:19:37.727Z,93.5
2017-06-30T04:20:36.931Z,93.2
2017-06-30T04:21:36.133Z,92.7
2017-06-30T04:22:35.844Z,93
2017-06-30T04:24:34.421Z,93.1
2017-06-30T04:25:33.514Z,93.3
2017-06-30T04:26:32.719Z,93.2
2017-06-30T04:27:31.909Z,92.8
2017-06-30T04:28:31.103Z,92.9
2017-06-30T04:29:30.309Z,92.9
2017-06-30T04:30:29.646Z,93.4
2017-06-30T04:31:28.866Z,93.2
2017-06-30T04:32:28.073Z,93.3
2017-06-30T04:33:27.664Z,92.8
2017-06-30T04:34:26.881Z,92.7
2017-06-30T04:35:26.233Z,93
2017-06-30T04:36:25.701Z,92.5
2017-06-30T04:37:24.403Z,92.4
2017-06-30T04:38:24.111Z,92.6
2017-06-30T04:39:23.326Z,92.2
2017-06-30T04:40:22.528Z,92.4
2017-06-30T04:41:21.875Z,92.1
2017-06-30T04:42:21.329Z,92.3
2017-06-30T04:43:19.905Z,92.1
2017-06-30T04:44:19.499Z,92.1
2017-06-30T04:45:18.699Z,91.9
2017-06-30T04:46:17.966Z,91.9
2017-06-30T04:47:17.184Z,92
2017-06-30T04:48:17.019Z,91.9
2017-06-30T04:49:15.987Z,91.9
2017-06-30T04:50:15.077Z,92.1
2017-06-30T04:51:14.161Z,91.8
2017-06-30T04:52:13.879Z,91.9
2017-06-30T04:53:13.082Z,91.9
2017-06-30T04:54:12.552Z,92.1
2017-06-30T04:55:11.258Z,91.9
2017-06-30T04:56:10.956Z,91.8
2017-06-30T04:57:10.161Z,91.8
2017-06-30T04:58:09.377Z,91.6
2017-06-30T04:59:08.662Z,91.6
2017-06-30T05:00:08.017Z,92.1
2017-06-30T05:01:06.870Z,91.9
2017-06-30T05:02:06.591Z,91.8
2017-06-30T05:03:05.802Z,91.4
2017-06-30T05:04:04.880Z,91.4
2017-06-30T05:05:04.078Z,91.5
2017-06-30T05:06:03.533Z,91.8
2017-06-30T05:07:02.741Z,91.9
2017-06-30T05:08:02.212Z,91.7
2017-06-30T05:09:01.423Z,91.5
2017-06-30T05:10:00.681Z,91.3
2017-06-30T05:10:59.765Z,91.4
2017-06-30T05:11:59.231Z,91.7
2017-06-30T05:12:58.440Z,91.2
2017-06-30T05:14:56.917Z,91.6
2017-06-30T05:15:56.121Z,91.4
2017-06-30T05:16:55.334Z,91.6
2017-06-30T05:17:54.655Z,91.1
2017-06-30T05:18:54.127Z,91.4
2017-06-30T05:19:53.330Z,91.1
2017-06-30T05:20:52.535Z,91.4
2017-06-30T05:21:51.740Z,91.5
2017-06-30T05:22:50.941Z,91.3
2017-06-30T05:23:50.410Z,91.6
2017-06-30T05:24:49.611Z,91.5
2017-06-30T05:25:48.812Z,91
2017-06-30T05:26:48.014Z,91.1
2017-06-30T05:27:47.614Z,91
2017-06-30T05:28:46.585Z,91.4
2017-06-30T05:29:46.038Z,91.5
2017-06-30T05:30:45.319Z,91.6
2017-06-30T05:31:15.720Z,91.6
2017-06-30T05:32:43.615Z,91.4
2017-06-30T05:33:43.211Z,91.3
2017-06-30T05:34:42.422Z,90.9
2017-06-30T05:35:41.767Z,90.9
2017-06-30T05:37:39.861Z,91
2017-06-30T05:38:39.565Z,91.1
2017-06-30T05:39:38.779Z,91.2
2017-06-30T05:40:37.858Z,90.9
2017-06-30T05:41:37.316Z,90.9
2017-06-30T05:42:36.519Z,91
2017-06-30T05:43:35.733Z,91
2017-06-30T05:44:34.936Z,90.8
2017-06-30T05:45:34.139Z,90.8
2017-06-30T05:46:33.343Z,90.9
2017-06-30T05:47:33.298Z,90.7
2017-06-30T05:48:31.998Z,90.8
2017-06-30T05:49:31.268Z,90.7
2017-06-30T05:50:30.501Z,90.6
2017-06-30T05:51:29.705Z,90.8
2017-06-30T05:52:29.293Z,90.3
2017-06-30T05:53:28.509Z,90.6
2017-06-30T05:54:27.600Z,90.7
2017-06-30T05:55:26.812Z,89.6
2017-06-30T05:56:26.407Z,89.9
2017-06-30T05:58:24.999Z,90.1
2017-06-30T05:59:24.458Z,90.1
2017-06-30T06:00:23.564Z,90
2017-06-30T06:01:22.781Z,90.4
2017-06-30T06:02:21.990Z,90.2
2017-06-30T06:03:21.201Z,89.9
2017-06-30T06:04:20.409Z,89.7
2017-06-30T06:05:19.858Z,89.5
2017-06-30T06:06:19.131Z,89.9
2017-06-30T06:07:18.330Z,90
2017-06-30T06:08:17.533Z,90.2
2017-06-30T06:09:16.736Z,89.9
2017-06-30T06:10:16.222Z,89.6
2017-06-30T06:11:15.676Z,90
2017-06-30T06:12:14.759Z,90.1
2017-06-30T06:13:14.410Z,89.8
2017-06-30T06:14:13.097Z,89.4
2017-06-30T06:15:12.684Z,89.7
2017-06-30T06:16:11.898Z,90
2017-06-30T06:17:11.354Z,89.5
2017-06-30T06:18:10.563Z,90
2017-06-30T06:19:09.768Z,89.2
2017-06-30T06:20:09.037Z,89.5
2017-06-30T06:21:08.242Z,89.2
2017-06-30T06:22:07.453Z,89.1
2017-06-30T06:23:06.912Z,88.7
2017-06-30T06:24:06.112Z,88.8
2017-06-30T06:25:05.314Z,89
2017-06-30T06:26:04.402Z,89.1
2017-06-30T06:27:03.996Z,89.2
2017-06-30T06:28:03.204Z,89.6
2017-06-30T06:29:02.672Z,89.3
2017-06-30T06:30:01.878Z,89.3
2017-06-30T06:31:01.212Z,89.5
2017-06-30T06:32:00.188Z,89.5
2017-06-30T06:32:59.457Z,89.5
2017-06-30T06:33:59.067Z,89.3
2017-06-30T06:34:58.528Z,89.5
2017-06-30T06:35:57.216Z,89.1
2017-06-30T06:36:56.921Z,88.8
2017-06-30T06:37:56.006Z,88.6
2017-06-30T06:38:55.205Z,88.5
2017-06-30T06:39:54.791Z,89.2
2017-06-30T06:40:25.328Z,89.2
2017-06-30T06:40:55.359Z,89.1
2017-06-30T06:41:25.883Z,89.1
2017-06-30T06:42:52.654Z,89
2017-06-30T06:43:51.930Z,89.1
2017-06-30T06:44:51.175Z,88.8
2017-06-30T06:45:50.660Z,88.8
2017-06-30T06:46:49.741Z,89
2017-06-30T06:47:48.817Z,88.9
2017-06-30T06:48:47.900Z,88.3
2017-06-30T06:49:47.611Z,88.2
2017-06-30T06:50:46.579Z,88.2
2017-06-30T06:51:46.032Z,88.5
2017-06-30T06:52:45.236Z,87.9
2017-06-30T06:53:44.466Z,88
2017-06-30T06:55:43.323Z,88.3
2017-06-30T06:56:42.588Z,88
2017-06-30T06:57:41.916Z,87.8
2017-06-30T06:58:41.133Z,87.8
2017-06-30T06:59:40.294Z,87.6
2017-06-30T07:00:39.498Z,87.4
2017-06-30T07:01:38.718Z,87.5
2017-06-30T07:02:37.989Z,87.6
2017-06-30T07:03:37.460Z,88.1
2017-06-30T07:05:36.059Z,88
2017-06-30T07:06:35.278Z,87.4
2017-06-30T07:07:34.489Z,87.3
2017-06-30T07:08:34.072Z,87.2
2017-06-30T07:09:33.410Z,87.4
2017-06-30T07:10:32.510Z,86.8
2017-06-30T07:11:31.612Z,87.5
2017-06-30T07:12:30.829Z,86.5
2017-06-30T07:13:30.413Z,86.4
2017-06-30T07:14:29.615Z,86.7
2017-06-30T07:15:28.969Z,86.4
2017-06-30T07:16:28.047Z,86.5
2017-06-30T07:17:27.253Z,86.9
2017-06-30T07:18:26.744Z,86.2
2017-06-30T07:19:25.954Z,86.1
2017-06-30T07:20:25.161Z,86.3
2017-06-30T07:21:25.123Z,86.2
2017-06-30T07:22:23.832Z,86.1
2017-06-30T07:23:23.033Z,85.9
2017-06-30T07:24:22.131Z,86.3
2017-06-30T07:25:21.720Z,86.7
2017-06-30T07:26:20.919Z,86.7
2017-06-30T07:27:20.456Z,86.1
2017-06-30T07:28:19.654Z,86.1
2017-06-30T07:29:18.869Z,86.5
2017-06-30T07:30:18.079Z,86.8
2017-06-30T07:31:17.795Z,87.3
2017-06-30T07:32:17.000Z,86.4
2017-06-30T07:33:16.443Z,86.3
2017-06-30T07:34:15.530Z,86.4
2017-06-30T07:35:14.796Z,86.2
2017-06-30T07:36:13.999Z,86.3
2017-06-30T07:37:13.207Z,86.1
2017-06-30T07:38:12.410Z,86.5
2017-06-30T07:39:12.268Z,86.5
2017-06-30T07:40:10.976Z,86.3
2017-06-30T07:41:10.693Z,85.8
2017-06-30T07:42:09.912Z,85.7
2017-06-30T07:43:09.117Z,85.8
2017-06-30T07:44:08.319Z,86
2017-06-30T07:45:07.782Z,86.4
2017-06-30T07:46:06.985Z,86.1
2017-06-30T07:47:06.070Z,86.2
2017-06-30T07:48:05.425Z,86
2017-06-30T07:49:04.630Z,86.1
2017-06-30T07:50:03.922Z,85.9
2017-06-30T07:51:03.759Z,85.9
2017-06-30T07:52:02.963Z,86
2017-06-30T07:54:01.055Z,85.9
2017-06-30T07:55:00.765Z,85.6
2017-06-30T07:55:59.843Z,85.6
2017-06-30T07:56:59.251Z,85.4
2017-06-30T07:57:58.345Z,85.5
2017-06-30T07:58:57.939Z,85.5
2017-06-30T07:59:57.141Z,85.2
2017-06-30T08:00:56.388Z,85.3
2017-06-30T08:01:55.591Z,84.9
2017-06-30T08:02:55.116Z,85.4
2017-06-30T08:03:54.317Z,85.4
2017-06-30T08:04:24.853Z,85.4
2017-06-30T08:04:55.418Z,85.4
2017-06-30T08:05:52.620Z,85.2
2017-06-30T08:06:51.890Z,85.1
2017-06-30T08:07:51.610Z,85.4
2017-06-30T08:08:51.079Z,85.3
2017-06-30T08:09:50.222Z,85.4
2017-06-30T08:10:49.443Z,85.1
2017-06-30T08:11:48.652Z,85.6
2017-06-30T08:12:47.857Z,85.2
2017-06-30T08:13:47.066Z,85.3
2017-06-30T08:14:46.524Z,85.2
2017-06-30T08:15:46.377Z,85.2
2017-06-30T08:16:45.084Z,85
2017-06-30T08:17:44.303Z,85.2
2017-06-30T08:18:43.511Z,84.9
2017-06-30T08:19:42.787Z,84.7
2017-06-30T08:20:42.249Z,84.7
2017-06-30T08:21:41.452Z,85.1
2017-06-30T08:22:40.652Z,84.8
2017-06-30T08:23:40.280Z,84.3
2017-06-30T08:24:39.366Z,84.6
2017-06-30T08:25:38.559Z,84.5
2017-06-30T08:26:38.286Z,84.6
2017-06-30T08:27:37.485Z,84.6
2017-06-30T08:28:36.693Z,84.5
2017-06-30T08:29:35.969Z,84.4
2017-06-30T08:30:35.176Z,84.6
2017-06-30T08:31:34.379Z,84.7
2017-06-30T08:32:33.853Z,84.5
2017-06-30T08:33:33.059Z,83.9
2017-06-30T08:34:32.331Z,83.3
2017-06-30T08:36:30.752Z,83.5
2017-06-30T08:37:30.486Z,83.2
2017-06-30T08:38:29.826Z,83.6
2017-06-30T08:39:28.909Z,83.3
2017-06-30T08:40:27.999Z,83.6
2017-06-30T08:41:27.095Z,83.3
2017-06-30T08:42:26.695Z,83.2
2017-06-30T08:43:25.966Z,83.9
2017-06-30T08:44:25.433Z,83.4
2017-06-30T08:45:24.403Z,83.3
2017-06-30T08:46:23.985Z,82.5
2017-06-30T08:47:23.192Z,82.6
2017-06-30T08:48:22.387Z,82.6
2017-06-30T08:49:21.635Z,82.1
2017-06-30T08:50:21.598Z,81.3
2017-06-30T08:51:20.362Z,80.5
2017-06-30T08:52:19.576Z,80.9
2017-06-30T08:53:19.292Z,80.7
2017-06-30T08:54:18.440Z,80.7
2017-06-30T08:55:17.647Z,80.7
2017-06-30T08:56:16.991Z,80
2017-06-30T08:57:16.094Z,79.2
2017-06-30T08:58:15.747Z,78.9
2017-06-30T08:59:14.872Z,79
2017-06-30T08:59:45.387Z,79
2017-06-30T09:00:15.915Z,79.1
2017-06-30T09:00:46.206Z,79.1
2017-06-30T09:02:12.854Z,78.6
2017-06-30T09:03:12.068Z,79.1
2017-06-30T09:04:11.675Z,80
2017-06-30T09:05:10.888Z,78.6
2017-06-30T09:06:10.149Z,78.6
2017-06-30T09:07:09.413Z,79.1
2017-06-30T09:08:08.884Z,79.6
2017-06-30T09:09:08.098Z,78.8
2017-06-30T09:10:07.308Z,79.1
2017-06-30T09:11:06.510Z,79.5
2017-06-30T09:12:05.874Z,78.9
2017-06-30T09:13:05.339Z,78.8
2017-06-30T09:14:04.805Z,78.2
2017-06-30T09:15:03.956Z,78.1
2017-06-30T09:16:03.128Z,77.9
2017-06-30T09:17:02.300Z,78.1
2017-06-30T09:18:01.786Z,78.2
2017-06-30T09:19:00.962Z,78.4
2017-06-30T09:20:00.847Z,78.5
2017-06-30T09:20:59.561Z,77.8
2017-06-30T09:21:59.165Z,77.6
2017-06-30T09:22:58.829Z,77.9
2017-06-30T09:24:57.196Z,78.2
2017-06-30T09:25:56.653Z,78
2017-06-30T09:26:55.865Z,78
2017-06-30T09:27:54.954Z,78
2017-06-30T09:28:54.171Z,78.8
2017-06-30T09:29:53.390Z,78.9
2017-06-30T09:30:52.657Z,78.5
2017-06-30T09:31:52.525Z,78.7
2017-06-30T09:32:51.737Z,78.8
2017-06-30T09:33:50.827Z,78.8
2017-06-30T09:34:50.502Z,78.8
2017-06-30T09:35:49.582Z,79.1
2017-06-30T09:36:48.784Z,79
2017-06-30T09:37:48.970Z,78.8
2017-06-30T09:38:47.182Z,78.5
2017-06-30T09:39:46.777Z,78.6
2017-06-30T09:40:17.286Z,78.6
2017-06-30T09:41:45.564Z,78.3
2017-06-30T09:42:44.784Z,78.9
2017-06-30T09:43:44.245Z,78.5
2017-06-30T09:45:42.838Z,78
2017-06-30T09:46:42.038Z,78.5
2017-06-30T09:47:41.132Z,78.6
2017-06-30T09:48:40.339Z,78.4
2017-06-30T09:49:40.355Z,78.6
2017-06-30T09:50:38.937Z,78.9
2017-06-30T09:51:38.647Z,78.4
2017-06-30T09:52:37.845Z,78.8
2017-06-30T09:53:37.051Z,78.4
2017-06-30T09:54:36.263Z,78.8
2017-06-30T09:55:35.793Z,78.4
2017-06-30T09:56:34.871Z,78.3
2017-06-30T09:57:34.412Z,77.4
2017-06-30T09:59:32.996Z,77.4
2017-06-30T10:00:32.341Z,77.3
2017-06-30T10:01:31.844Z,78
2017-06-30T10:02:31.067Z,78.1
2017-06-30T10:03:30.352Z,78.7
2017-06-30T10:04:30.159Z,78
2017-06-30T10:05:28.856Z,77.1
2017-06-30T10:06:28.076Z,77.4
2017-06-30T10:07:27.934Z,77.2
2017-06-30T10:08:26.646Z,77.1
2017-06-30T10:09:26.355Z,76.9
2017-06-30T10:10:25.575Z,76.7
2017-06-30T10:11:25.036Z,77
2017-06-30T10:12:24.241Z,76.8
2017-06-30T10:13:23.477Z,77.1
2017-06-30T10:14:22.949Z,76.4
2017-06-30T10:15:22.138Z,76.7
2017-06-30T10:16:21.349Z,76.2
2017-06-30T10:17:20.553Z,76
2017-06-30T10:19:19.392Z,75.2
2017-06-30T10:20:18.605Z,75.5
2017-06-30T10:21:18.198Z,75.3
2017-06-30T10:22:17.423Z,75.1
2017-06-30T10:24:16.013Z,74.3
2017-06-30T10:25:15.479Z,74.4
2017-06-30T10:26:14.688Z,74
2017-06-30T10:27:13.896Z,73.5
2017-06-30T10:28:13.123Z,72.8
2017-06-30T10:29:12.345Z,72.1
2017-06-30T10:30:12.055Z,71.8
2017-06-30T10:31:11.526Z,72.2
2017-06-30T10:32:10.249Z,71.4
2017-06-30T10:33:09.964Z,70.4
2017-06-30T10:34:09.055Z,70
2017-06-30T10:35:08.403Z,70.6
2017-06-30T10:36:07.607Z,71
2017-06-30T10:37:07.573Z,70.4
2017-06-30T10:38:06.263Z,70
2017-06-30T10:39:05.733Z,70.4
2017-06-30T10:40:04.808Z,70.6
2017-06-30T10:41:04.522Z,69.8
2017-06-30T10:42:03.608Z,70.7
2017-06-30T10:43:03.450Z,70.6
2017-06-30T10:44:02.649Z,70.5
2017-06-30T10:45:01.846Z,70.4
2017-06-30T10:46:01.895Z,69.7
2017-06-30T10:47:00.485Z,68.5
2017-06-30T10:47:59.711Z,68.1
2017-06-30T10:48:59.184Z,68.3
2017-06-30T10:49:58.268Z,68.2
2017-06-30T10:50:57.977Z,68.1
2017-06-30T10:51:57.187Z,67.9
2017-06-30T10:52:56.668Z,67.6
2017-06-30T10:53:55.894Z,68.2
2017-06-30T10:54:55.241Z,67.9
2017-06-30T10:55:54.322Z,67.1
2017-06-30T10:56:54.038Z,66.9
2017-06-30T10:57:53.248Z,67
2017-06-30T10:58:52.441Z,67.2
2017-06-30T10:59:52.043Z,68.4
2017-06-30T11:01:50.786Z,67
2017-06-30T11:02:49.867Z,66.8
2017-06-30T11:03:48.953Z,66.9
2017-06-30T11:04:48.822Z,66.5
2017-06-30T11:05:48.046Z,66.8
2017-06-30T11:06:47.146Z,67.1
2017-06-30T11:07:47.111Z,65.8
2017-06-30T11:08:45.819Z,65.8
2017-06-30T11:10:44.916Z,67.4
2017-06-30T11:11:44.120Z,67.8
2017-06-30T11:12:43.336Z,68
2017-06-30T11:13:42.798Z,67.3
2017-06-30T11:14:41.936Z,67.6
2017-06-30T11:15:41.419Z,68.1
2017-06-30T11:16:41.004Z,68.2
2017-06-30T11:17:40.085Z,67.9
2017-06-30T11:18:39.681Z,67.6
2017-06-30T11:19:10.607Z,67.6
2017-06-30T11:20:38.509Z,68.9
2017-06-30T11:21:37.616Z,68.6
2017-06-30T11:22:36.823Z,68.8
2017-06-30T11:23:36.570Z,69.9
2017-06-30T11:24:36.037Z,68.5
2017-06-30T11:25:35.236Z,69.2
2017-06-30T11:26:34.442Z,68.3
2017-06-30T11:27:33.646Z,68.1
2017-06-30T11:28:33.357Z,68.4
2017-06-30T11:29:32.627Z,68.9
2017-06-30T11:30:32.087Z,69.3
2017-06-30T11:31:31.307Z,67.8
2017-06-30T11:32:30.411Z,66.9
2017-06-30T11:33:30.112Z,66.1
2017-06-30T11:34:29.193Z,66.6
2017-06-30T11:35:28.430Z,66.6
2017-06-30T11:36:27.969Z,67.1
2017-06-30T11:37:27.181Z,66.9
2017-06-30T11:38:26.650Z,65.5
2017-06-30T11:39:25.866Z,65.8
2017-06-30T11:40:25.517Z,66
2017-06-30T11:41:24.721Z,66.7
2017-06-30T11:42:24.558Z,66.7
2017-06-30T11:43:23.294Z,66.9
2017-06-30T11:44:22.893Z,67.2
2017-06-30T11:45:22.111Z,66.9
2017-06-30T11:46:21.312Z,67.4
2017-06-30T11:47:20.901Z,67.7
2017-06-30T11:48:20.369Z,67.1
2017-06-30T11:49:19.459Z,67.3
2017-06-30T11:50:19.094Z,67.8
2017-06-30T11:51:18.312Z,68
2017-06-30T11:52:17.532Z,67.9
2017-06-30T11:53:17.183Z,68
2017-06-30T11:54:16.628Z,68.3
2017-06-30T11:55:15.840Z,68.5
2017-06-30T11:56:15.043Z,69.4
2017-06-30T11:57:14.242Z,69.1
2017-06-30T11:58:13.949Z,68.8
2017-06-30T11:59:13.071Z,68.8
2017-06-30T12:00:12.684Z,68.9
2017-06-30T12:01:12.161Z,68.6
2017-06-30T12:01:42.674Z,68.6
2017-06-30T12:03:10.515Z,69.2
2017-06-30T12:05:09.121Z,68.8
2017-06-30T12:06:08.850Z,68.3
2017-06-30T12:07:07.949Z,68
2017-06-30T12:08:08.253Z,67.2
2017-06-30T12:09:06.952Z,66.9
2017-06-30T12:10:06.039Z,67
2017-06-30T12:11:05.695Z,66.4
2017-06-30T12:12:05.348Z,66.4
2017-06-30T12:13:04.049Z,66.6
2017-06-30T12:14:03.647Z,66.5
2017-06-30T12:15:02.803Z,66.1
2017-06-30T12:16:02.499Z,66.5
2017-06-30T12:17:01.716Z,65.5
2017-06-30T12:18:01.056Z,65.8
2017-06-30T12:19:00.253Z,66.3
2017-06-30T12:19:59.537Z,66
2017-06-30T12:20:59.247Z,66.5
2017-06-30T12:21:58.454Z,66
2017-06-30T12:22:57.659Z,65.4
2017-06-30T12:24:56.938Z,65.2
2017-06-30T12:25:55.642Z,63.8
2017-06-30T12:26:55.354Z,64
2017-06-30T12:27:54.430Z,65.4
2017-06-30T12:30:53.176Z,63.9
2017-06-30T12:31:52.444Z,61.6
2017-06-30T12:32:51.647Z,60.9
2017-06-30T12:33:50.868Z,60.4
2017-06-30T12:34:50.151Z,60.2
2017-06-30T12:35:49.365Z,59.9
2017-06-30T12:36:49.340Z,59.8
2017-06-30T12:37:48.562Z,59.9
2017-06-30T12:38:47.774Z,59.3
2017-06-30T12:39:46.863Z,58.1
2017-06-30T12:40:46.525Z,58.4
2017-06-30T12:41:45.796Z,58.5
2017-06-30T12:42:45.264Z,58.8
2017-06-30T12:43:44.397Z,59.2
2017-06-30T12:44:44.167Z,59.1
2017-06-30T12:45:43.262Z,60.1
2017-06-30T12:46:42.977Z,59.4
2017-06-30T12:47:42.222Z,59.2
2017-06-30T12:48:41.669Z,59.8
2017-06-30T12:49:40.877Z,59.6
2017-06-30T12:50:40.525Z,59.2
2017-06-30T12:51:39.614Z,59.3
2017-06-30T12:52:38.702Z,59.3
2017-06-30T12:53:38.417Z,60.1
2017-06-30T12:54:37.869Z,60
2017-06-30T12:55:37.056Z,60.5
2017-06-30T12:56:36.826Z,60
2017-06-30T12:57:36.042Z,60.2
2017-06-30T12:58:35.254Z,59.6
2017-06-30T12:59:34.966Z,59.9
2017-06-30T13:00:34.573Z,59.7
2017-06-30T13:01:33.318Z,59.4
2017-06-30T13:02:33.034Z,59.4
2017-06-30T13:03:32.235Z,59.9
2017-06-30T13:04:31.442Z,59.6
2017-06-30T13:05:31.150Z,60.1
2017-06-30T13:06:30.753Z,60.5
2017-06-30T13:07:29.828Z,59.9
2017-06-30T13:08:29.041Z,59.8
2017-06-30T13:09:28.785Z,59.7
2017-06-30T13:10:28.442Z,60.2
2017-06-30T13:11:27.148Z,58.9
2017-06-30T13:11:57.921Z,58.9
2017-06-30T13:12:28.210Z,58
2017-06-30T13:12:58.798Z,58
2017-06-30T13:16:24.474Z,58
2017-06-30T13:17:23.948Z,58.7
2017-06-30T13:18:23.156Z,58
2017-06-30T13:19:22.242Z,58.3
2017-06-30T13:20:21.956Z,58.9
2017-06-30T13:21:21.120Z,58.8
2017-06-30T13:22:20.839Z,58.9
2017-06-30T13:23:20.172Z,59.2
2017-06-30T13:24:19.378Z,59
2017-06-30T13:25:18.597Z,58.5
2017-06-30T13:26:18.305Z,58.6
2017-06-30T13:27:17.783Z,58.1
2017-06-30T13:28:17.610Z,58.1
2017-06-30T13:29:16.560Z,57.7
2017-06-30T13:30:15.799Z,57.8
2017-06-30T13:31:15.011Z,58.1
2017-06-30T13:32:14.612Z,58.2
2017-06-30T13:33:14.199Z,58.1
2017-06-30T13:34:13.406Z,58.7
2017-06-30T13:35:13.438Z,57.6
2017-06-30T13:36:11.908Z,57.2